Time;durP1;ratioP1;P1;durP2;ratioP2;P2;SDS_P1;SDS_P2;PMS_P1;PMS_P2;Temp;Humidity;BMP_temperature;BMP_pressure;BME280_temperature;BME280_humidity;BME280_pressure;Samples;Min_cycle;Max_cycle;Signal;HPM_P1;HPM_P2
2023/06/17 00:01:32;;;;;;;;;;;;;;;24.31;45.84;100677.14;2293523;77;51413;-74
2023/06/17 00:04:34;;;;;;;;;;;;;;;24.31;45.83;100679.31;2293390;75;51645;-74
2023/06/17 00:07:36;;;;;;;;;;;;;;;24.31;45.76;100674.44;2301823;76;51581;-74
2023/06/17 00:10:37;;;;;;;;;;;;;;;24.32;45.60;100678.78;2209129;78;52477;-74
2023/06/17 00:13:39;;;;;;;;;;;;;;;24.32;45.51;100674.72;2231339;78;51358;-72
2023/06/17 00:16:43;;;;;;;;;;;;;;;24.33;45.46;100668.28;2254178;79;52175;-73
2023/06/17 00:19:44;;;;;;;;;;;;;;;24.32;45.44;100667.96;2255834;77;23003;-72
2023/06/17 00:22:46;;;;;;;;;;;;;;;24.33;45.44;100666.94;2212154;78;52597;-72
2023/06/17 00:25:48;;;;;;;;;;;;;;;24.33;45.47;100672.34;2258970;77;50314;-73
2023/06/17 00:28:50;;;;;;;;;;;;;;;24.31;45.46;100669.84;2258830;77;50270;-73
2023/06/17 00:31:51;;;;;;;;;;;;;;;24.31;45.56;100664.97;2236082;78;50061;-73
2023/06/17 00:34:53;;;;;;;;;;;;;;;24.31;45.35;100662.27;2211895;78;51074;-73
2023/06/17 00:37:55;;;;;;;;;;;;;;;24.30;45.32;100660.59;2242483;77;51405;-73
2023/06/17 00:40:56;;;;;;;;;;;;;;;24.31;45.40;100659.56;2268431;76;51508;-73
2023/06/17 00:43:58;;;;;;;;;;;;;;;24.31;45.31;100653.62;2234494;78;50184;-73
2023/06/17 00:47:00;;;;;;;;;;;;;;;24.30;45.31;100648.42;2233477;79;52348;-73
2023/06/17 00:50:02;;;;;;;;;;;;;;;24.29;45.30;100657.59;2257211;78;51504;-73
2023/06/17 00:53:05;;;;;;;;;;;;;;;24.29;45.30;100654.89;2257254;78;50309;-74
2023/06/17 00:56:07;;;;;;;;;;;;;;;24.29;45.30;100652.19;2257078;78;51531;-74
2023/06/17 00:59:08;;;;;;;;;;;;;;;24.28;45.24;100649.19;2234090;78;52414;-74
2023/06/17 01:02:11;;;;;;;;;;;;;;;24.29;45.21;100640.84;2233980;79;51530;-74
2023/06/17 01:05:14;;;;;;;;;;;;;;;24.28;45.27;100639.72;2233665;79;50551;-73
2023/06/17 01:08:20;;;;;;;;;;;;;;;24.28;45.20;100641.90;2257367;78;50673;-73
2023/06/17 01:11:21;;;;;;;;;;;;;;;24.29;45.14;100636.78;2232646;79;52453;-73
2023/06/17 01:14:23;;;;;;;;;;;;;;;24.27;45.20;100633.47;2257141;78;50694;-73
2023/06/17 01:17:25;;;;;;;;;;;;;;;24.28;45.10;100641.90;2256933;79;51625;-74
2023/06/17 01:20:28;;;;;;;;;;;;;;;24.28;45.12;100646.48;2257082;77;50832;-73
2023/06/17 01:23:32;;;;;;;;;;;;;;;24.27;45.13;100649.69;2233881;78;52701;-73
2023/06/17 01:26:34;;;;;;;;;;;;;;;24.27;45.08;100650.22;2256406;78;50400;-73
2023/06/17 01:29:37;;;;;;;;;;;;;;;24.26;45.13;100645.88;2257230;78;50275;-74
2023/06/17 01:32:39;;;;;;;;;;;;;;;24.26;45.03;100653.45;2234090;79;52636;-73
2023/06/17 01:35:42;;;;;;;;;;;;;;;24.26;45.04;100653.98;2233887;79;52468;-73
2023/06/17 01:38:45;;;;;;;;;;;;;;;24.26;45.06;100651.28;2262388;77;51747;-74
2023/06/17 01:41:48;;;;;;;;;;;;;;;24.26;45.07;100648.05;2296189;77;51563;-73
2023/06/17 01:44:50;;;;;;;;;;;;;;;24.25;45.14;100646.91;2293623;77;51526;-74
2023/06/17 01:47:51;;;;;;;;;;;;;;;24.25;45.10;100654.52;2293231;76;51133;-74
2023/06/17 01:50:53;;;;;;;;;;;;;;;24.25;45.11;100652.31;2315517;76;50252;-74
2023/06/17 01:53:54;;;;;;;;;;;;;;;24.24;45.15;100647.96;2315397;77;50643;-74
2023/06/17 01:56:56;;;;;;;;;;;;;;;24.24;45.07;100643.91;2293333;77;50596;-73
2023/06/17 01:59:58;;;;;;;;;;;;;;;24.24;45.10;100642.55;2293378;77;52519;-74
2023/06/17 02:02:59;;;;;;;;;;;;;;;24.24;45.11;100638.50;2315378;75;51418;-74
2023/06/17 02:06:01;;;;;;;;;;;;;;;24.22;45.15;100635.18;2293385;77;51512;-73
2023/06/17 02:09:02;;;;;;;;;;;;;;;24.22;45.29;100635.18;2250337;77;52062;-74
2023/06/17 02:12:05;;;;;;;;;;;;;;;24.20;45.34;100633.22;2209447;79;52257;-73
2023/06/17 02:15:07;;;;;;;;;;;;;;;24.20;45.30;100631.37;2233998;79;50325;-74
2023/06/17 02:18:09;;;;;;;;;;;;;;;24.21;45.34;100634.36;2233822;78;50283;-73
2023/06/17 02:21:10;;;;;;;;;;;;;;;24.21;45.27;100630.84;2257107;79;51382;-73
2023/06/17 02:24:12;;;;;;;;;;;;;;;24.21;45.23;100628.13;2233958;79;52250;-73
2023/06/17 02:27:14;;;;;;;;;;;;;;;24.22;45.23;100631.13;2234116;78;50375;-73
2023/06/17 02:30:15;;;;;;;;;;;;;;;24.20;45.25;100627.31;2233993;78;50067;-74
2023/06/17 02:33:18;;;;;;;;;;;;;;;24.20;45.28;100634.56;2257221;79;50252;-74
2023/06/17 02:36:19;;;;;;;;;;;;;;;24.21;45.20;100633.54;2233494;79;52581;-73
2023/06/17 02:39:21;;;;;;;;;;;;;;;24.19;45.21;100636.45;2253460;77;50371;-73
2023/06/17 02:42:22;;;;;;;;;;;;;;;24.19;45.22;100627.52;2256592;77;50240;-73
2023/06/17 02:45:24;;;;;;;;;;;;;;;24.20;45.17;100630.52;2257225;79;50270;-73
2023/06/17 02:48:26;;;;;;;;;;;;;;;24.20;45.15;100633.22;2209992;79;50585;-73
2023/06/17 02:51:27;;;;;;;;;;;;;;;24.18;45.14;100626.70;2233951;78;50258;-73
2023/06/17 02:54:29;;;;;;;;;;;;;;;24.18;45.21;100631.28;2233997;78;51451;-74
2023/06/17 02:57:30;;;;;;;;;;;;;;;24.18;45.20;100625.88;2257094;79;50211;-73
2023/06/17 03:00:32;;;;;;;;;;;;;;;24.17;45.21;100629.08;2210134;79;51076;-73
2023/06/17 03:03:34;;;;;;;;;;;;;;;24.17;45.19;100622.85;2257433;77;50314;-73
2023/06/17 03:06:36;;;;;;;;;;;;;;;24.17;45.22;100625.02;2234136;78;51435;-73
2023/06/17 03:09:37;;;;;;;;;;;;;;;24.17;45.11;100627.73;2257361;77;51571;-74
2023/06/17 03:12:39;;;;;;;;;;;;;;;24.16;45.11;100622.03;2288734;77;51601;-74
2023/06/17 03:15:40;;;;;;;;;;;;;;;24.15;45.19;100619.53;2315516;77;50487;-74
2023/06/17 03:18:42;;;;;;;;;;;;;;;24.12;45.20;100623.00;2293440;77;50707;-73
2023/06/17 03:21:45;;;;;;;;;;;;;;;24.13;45.16;100619.24;2293630;77;52250;-73
2023/06/17 03:24:46;;;;;;;;;;;;;;;24.13;45.22;100617.89;2293603;77;51316;-74
2023/06/17 03:27:48;;;;;;;;;;;;;;;24.14;45.18;100620.06;2315280;75;51444;-74
2023/06/17 03:30:50;;;;;;;;;;;;;;;24.15;45.11;100619.53;2315472;76;50337;-73
2023/06/17 03:33:52;;;;;;;;;;;;;;;24.15;45.09;100623.59;2315585;77;51449;-74
2023/06/17 03:36:56;;;;;;;;;;;;;;;24.12;45.16;100627.06;2315551;77;50680;-74
2023/06/17 03:39:57;;;;;;;;;;;;;;;24.13;45.12;100626.53;2235148;78;22992;-73
2023/06/17 03:42:58;;;;;;;;;;;;;;;24.14;45.03;100617.36;2254596;79;50332;-74
2023/06/17 03:46:00;;;;;;;;;;;;;;;24.14;45.03;100614.66;2254966;79;51425;-73
2023/06/17 03:49:02;;;;;;;;;;;;;;;24.13;45.08;100615.72;2232399;79;51545;-73
2023/06/17 03:52:04;;;;;;;;;;;;;;;24.13;45.02;100623.83;2234198;79;51542;-73
2023/06/17 03:55:05;;;;;;;;;;;;;;;24.13;45.03;100627.35;2224977;79;50642;-74
2023/06/17 03:58:07;;;;;;;;;;;;;;;24.12;45.08;100624.86;2222864;80;51449;-74
2023/06/17 04:01:12;;;;;;;;;;;;;;;24.12;45.03;100630.27;2176926;80;51624;-74
2023/06/17 04:04:12;;;;;;;;;;;;;;;24.12;45.04;100631.12;2199680;79;22330;-74
2023/06/17 04:07:13;;;;;;;;;;;;;;;24.11;45.18;100634.85;2233955;76;50265;-75
2023/06/17 04:10:15;;;;;;;;;;;;;;;24.12;45.34;100638.38;2261507;78;50378;-73
2023/06/17 04:13:17;;;;;;;;;;;;;;;24.11;45.17;100636.73;2259527;78;50285;-74
2023/06/17 04:16:18;;;;;;;;;;;;;;;24.11;45.13;100638.08;2258773;77;50223;-74
2023/06/17 04:19:20;;;;;;;;;;;;;;;24.10;45.14;100635.91;2259200;78;50725;-74
2023/06/17 04:22:21;;;;;;;;;;;;;;;24.12;45.11;100632.97;2259284;78;50030;-75
2023/06/17 04:25:23;;;;;;;;;;;;;;;24.10;45.10;100638.61;2235746;78;50117;-75
2023/06/17 04:28:25;;;;;;;;;;;;;;;24.09;45.19;100642.34;2236143;78;50663;-74
2023/06/17 04:31:27;;;;;;;;;;;;;;;24.09;45.23;100636.94;2259080;78;50370;-74
2023/06/17 04:34:29;;;;;;;;;;;;;;;24.09;45.22;100636.12;2259131;78;51594;-75
2023/06/17 04:37:36;;;;;;;;;;;;;;;24.10;45.19;100632.39;2213567;77;49692;-74
2023/06/17 04:40:36;;;;;;;;;;;;;;;24.10;45.21;100632.39;2233052;78;23190;-74
2023/06/17 04:43:37;;;;;;;;;;;;;;;24.10;45.22;100641.31;2257419;77;22488;-75
2023/06/17 04:46:39;;;;;;;;;;;;;;;24.09;45.14;100636.94;2256964;78;50214;-74
2023/06/17 04:49:41;;;;;;;;;;;;;;;24.09;45.12;100639.64;2210928;79;51752;-74
2023/06/17 04:52:51;;;;;;;;;;;;;;;24.09;45.37;100641.00;2234024;79;50394;-75
2023/06/17 04:55:52;;;;;;;;;;;;;;;24.09;45.40;100642.34;2257455;79;50493;-76
2023/06/17 04:58:54;;;;;;;;;;;;;;;24.08;45.52;100649.34;2257177;77;50336;-75
2023/06/17 05:01:56;;;;;;;;;;;;;;;24.07;45.50;100641.77;2233785;79;52567;-74
2023/06/17 05:04:58;;;;;;;;;;;;;;;24.08;45.69;100647.98;2234482;78;51586;-75
2023/06/17 05:07:59;;;;;;;;;;;;;;;24.05;45.91;100643.03;2254310;76;52110;-75
2023/06/17 05:11:01;;;;;;;;;;;;;;;24.05;46.02;100641.68;2294666;76;51546;-75
2023/06/17 05:14:02;;;;;;;;;;;;;;;24.04;46.23;100642.17;2292802;76;51421;-74
2023/06/17 05:17:04;;;;;;;;;;;;;;;24.00;46.59;100643.68;2293246;77;51544;-74
2023/06/17 05:20:06;;;;;;;;;;;;;;;23.97;46.69;100649.53;2293149;77;50616;-74
2023/06/17 05:23:08;;;;;;;;;;;;;;;23.93;46.85;100647.48;2315387;75;50283;-74
2023/06/17 05:26:09;;;;;;;;;;;;;;;23.91;46.97;100644.98;2293047;77;49703;-75
2023/06/17 05:29:11;;;;;;;;;;;;;;;23.88;47.06;100649.48;2293254;75;51563;-74
2023/06/17 05:32:13;;;;;;;;;;;;;;;23.85;47.05;100644.52;2315396;77;50361;-74
2023/06/17 05:35:14;;;;;;;;;;;;;;;23.82;47.25;100649.01;2315474;77;50268;-75
2023/06/17 05:38:16;;;;;;;;;;;;;;;23.76;47.47;100645.81;2245399;79;50087;-75
2023/06/17 05:41:17;;;;;;;;;;;;;;;23.80;47.33;100648.39;2233785;78;51413;-73
2023/06/17 05:44:19;;;;;;;;;;;;;;;23.82;47.39;100649.83;2257006;77;50597;-75
2023/06/17 05:47:20;;;;;;;;;;;;;;;23.80;47.30;100652.45;2256952;79;50742;-75
2023/06/17 05:50:22;;;;;;;;;;;;;;;23.80;47.23;100653.27;2233979;79;52802;-73
2023/06/17 05:53:24;;;;;;;;;;;;;;;23.82;47.45;100657.12;2234347;78;50106;-73
2023/06/17 05:56:27;;;;;;;;;;;;;;;23.81;47.37;100654.09;2256784;77;50322;-74
2023/06/17 05:59:29;;;;;;;;;;;;;;;23.81;47.27;100654.09;2257168;78;51698;-73
2023/06/17 06:02:31;;;;;;;;;;;;;;;23.83;47.13;100664.16;2210366;79;51200;-73
2023/06/17 06:05:33;;;;;;;;;;;;;;;23.84;47.03;100668.51;2257419;79;50617;-73
2023/06/17 06:08:34;;;;;;;;;;;;;;;23.84;47.00;100665.81;2241576;77;51398;-73
2023/06/17 06:11:36;;;;;;;;;;;;;;;23.84;47.03;100669.86;2243265;78;51445;-74
2023/06/17 06:14:37;;;;;;;;;;;;;;;23.84;46.97;100669.86;2207437;79;51006;-74
2023/06/17 06:17:39;;;;;;;;;;;;;;;23.84;46.93;100669.86;2231129;79;51427;-73
2023/06/17 06:20:41;;;;;;;;;;;;;;;23.83;46.90;100669.57;2254266;79;50332;-74
2023/06/17 06:23:42;;;;;;;;;;;;;;;23.82;46.83;100674.15;2231674;79;50093;-74
2023/06/17 06:26:44;;;;;;;;;;;;;;;23.83;46.76;100669.57;2230868;79;51132;-73
2023/06/17 06:29:45;;;;;;;;;;;;;;;23.88;46.77;100669.22;2231300;78;50232;-74
2023/06/17 06:32:47;;;;;;;;;;;;;;;23.88;46.76;100681.91;2254562;78;50039;-73
2023/06/17 06:35:48;;;;;;;;;;;;;;;23.87;46.66;100674.33;2262403;77;50727;-73
2023/06/17 06:38:50;;;;;;;;;;;;;;;23.88;46.77;100677.33;2218733;77;50924;-74
2023/06/17 06:41:52;;;;;;;;;;;;;;;23.88;46.64;100675.97;2259476;77;50424;-76
2023/06/17 06:44:54;;;;;;;;;;;;;;;23.88;46.59;100680.55;2257256;78;50302;-74
2023/06/17 06:47:55;;;;;;;;;;;;;;;23.89;46.56;100687.60;2234080;77;50253;-74
2023/06/17 06:50:57;;;;;;;;;;;;;;;23.91;46.50;100677.41;2210164;79;51602;-74
2023/06/17 06:53:58;;;;;;;;;;;;;;;23.90;46.48;100687.40;2234213;78;50312;-74
2023/06/17 06:57:01;;;;;;;;;;;;;;;23.93;46.50;100684.78;2234240;78;50351;-74
2023/06/17 07:00:07;;;;;;;;;;;;;;;23.93;46.41;100682.08;2234851;78;51453;-73
2023/06/17 07:03:06;;;;;;;;;;;;;;;23.92;46.48;100681.79;2234156;77;22300;-74
2023/06/17 07:06:07;;;;;;;;;;;;;;;23.94;46.51;100685.61;2235024;78;50248;-74
2023/06/17 07:09:09;;;;;;;;;;;;;;;23.94;46.43;100684.25;2245491;78;50256;-75
2023/06/17 07:12:12;;;;;;;;;;;;;;;23.93;46.42;100683.44;2258523;78;50773;-74
2023/06/17 07:15:14;;;;;;;;;;;;;;;23.94;46.35;100686.95;2233891;78;51874;-75
2023/06/17 07:18:15;;;;;;;;;;;;;;;23.94;46.36;100690.48;2233826;79;50292;-74
2023/06/17 07:21:17;;;;;;;;;;;;;;;23.95;46.31;100688.10;2257103;78;51559;-75
2023/06/17 07:24:19;;;;;;;;;;;;;;;23.94;46.39;100683.72;2233852;79;50118;-75
2023/06/17 07:27:20;;;;;;;;;;;;;;;23.96;46.38;100691.63;2233515;78;51195;-75
2023/06/17 07:30:22;;;;;;;;;;;;;;;23.95;46.30;100688.10;2257180;79;50666;-75
2023/06/17 07:33:23;;;;;;;;;;;;;;;23.96;46.38;100690.28;2257177;79;51367;-75
2023/06/17 07:36:25;;;;;;;;;;;;;;;23.97;46.40;100690.07;2266561;77;51504;-74
2023/06/17 07:39:26;;;;;;;;;;;;;;;23.98;46.43;100687.66;2268911;77;51531;-74
2023/06/17 07:42:28;;;;;;;;;;;;;;;23.97;46.50;100690.57;2233807;79;51411;-75
2023/06/17 07:45:29;;;;;;;;;;;;;;;23.96;46.73;100687.05;2233793;79;50054;-74
2023/06/17 07:48:32;;;;;;;;;;;;;;;23.96;46.90;100687.05;2233549;78;50474;-75
2023/06/17 07:51:33;;;;;;;;;;;;;;;23.98;46.88;100690.36;2233743;79;52716;-75
2023/06/17 07:54:35;;;;;;;;;;;;;;;23.96;47.05;100688.40;2233771;79;50710;-75
2023/06/17 07:57:37;;;;;;;;;;;;;;;23.94;47.20;100686.43;2234049;78;50663;-75
2023/06/17 08:00:38;;;;;;;;;;;;;;;23.96;47.41;100688.92;2260270;78;51358;-75
2023/06/17 08:03:40;;;;;;;;;;;;;;;23.96;47.39;100692.98;2212657;78;52333;-75
2023/06/17 08:06:41;;;;;;;;;;;;;;;23.97;47.31;100696.83;2288284;77;51501;-76
2023/06/17 08:09:43;;;;;;;;;;;;;;;23.93;47.35;100690.72;2253960;75;51527;-75
2023/06/17 08:12:46;;;;;;;;;;;;;;;23.90;47.41;100689.28;2233741;79;51427;-75
2023/06/17 08:15:49;;;;;;;;;;;;;;;23.90;47.47;100689.28;2257061;77;50331;-73
2023/06/17 08:18:51;;;;;;;;;;;;;;;23.90;47.50;100685.22;2238540;78;22741;-73
2023/06/17 08:21:52;;;;;;;;;;;;;;;23.90;47.51;100691.45;2259088;77;50769;-74
2023/06/17 08:24:54;;;;;;;;;;;;;;;23.88;47.67;100694.06;2296283;75;49752;-74
2023/06/17 08:27:55;;;;;;;;;;;;;;;23.89;47.66;100686.25;2233529;79;53645;-74
2023/06/17 08:30:57;;;;;;;;;;;;;;;23.90;47.52;100685.22;2295112;76;50326;-74
2023/06/17 08:33:58;;;;;;;;;;;;;;;23.91;47.58;100689.57;2254252;79;50269;-75
2023/06/17 08:37:08;;;;;;;;;;;;;;;23.90;47.67;100697.39;2252679;78;50370;-75
2023/06/17 08:40:08;;;;;;;;;;;;;;;23.89;47.82;100695.71;2271025;77;22914;-74
2023/06/17 08:43:10;;;;;;;;;;;;;;;23.89;47.66;100691.16;2231698;79;50614;-75
2023/06/17 08:46:11;;;;;;;;;;;;;;;23.90;47.61;100690.63;2254525;79;50288;-75
2023/06/17 08:49:13;;;;;;;;;;;;;;;23.87;47.62;100692.42;2257022;78;50324;-74
2023/06/17 08:52:15;;;;;;;;;;;;;;;23.86;47.58;100696.97;2275979;77;51664;-74
2023/06/17 08:55:16;;;;;;;;;;;;;;;23.85;47.58;100699.38;2261109;77;50507;-75
2023/06/17 08:58:18;;;;;;;;;;;;;;;23.83;47.75;100695.23;2257033;77;51517;-74
2023/06/17 09:01:19;;;;;;;;;;;;;;;23.84;47.67;100699.59;2254101;77;50332;-74
2023/06/17 09:04:22;;;;;;;;;;;;;;;23.83;47.80;100706.05;2231254;78;51199;-75
2023/06/17 09:07:23;;;;;;;;;;;;;;;23.83;47.70;100700.64;2257074;77;51486;-74
2023/06/17 09:10:25;;;;;;;;;;;;;;;23.85;47.60;100705.31;2256431;78;51442;-74
2023/06/17 09:13:27;;;;;;;;;;;;;;;23.83;47.57;100707.40;2231032;79;51506;-74
2023/06/17 09:16:29;;;;;;;;;;;;;;;23.85;47.53;100705.31;2210226;79;52275;-74
2023/06/17 09:19:31;;;;;;;;;;;;;;;23.85;47.47;100703.96;2255178;79;51572;-73
2023/06/17 09:22:33;;;;;;;;;;;;;;;23.85;47.54;100699.91;2257090;78;51648;-73
2023/06/17 09:25:35;;;;;;;;;;;;;;;23.81;48.16;100713.00;2257008;79;50269;-74
2023/06/17 09:28:37;;;;;;;;;;;;;;;23.72;48.51;100715.67;2256929;77;51549;-75
2023/06/17 09:31:49;;;;;;;;;;;;;;;23.58;49.16;100714.89;2278795;76;52048;-75
2023/06/17 09:34:50;;;;;;;;;;;;;;;23.57;49.03;100717.27;2269569;76;51506;-75
2023/06/17 09:37:53;;;;;;;;;;;;;;;23.38;49.32;100716.84;2253912;77;50699;-75
2023/06/17 09:40:55;;;;;;;;;;;;;;;23.28;49.61;100712.41;2231107;79;51723;-75
2023/06/17 09:43:56;;;;;;;;;;;;;;;23.35;49.30;100715.89;2254282;79;50340;-75
2023/06/17 09:47:00;;;;;;;;;;;;;;;23.18;49.62;100706.92;2231119;79;50641;-76
2023/06/17 09:50:03;;;;;;;;;;;;;;;23.08;50.01;100712.45;2253564;77;50720;-74
2023/06/17 09:53:05;;;;;;;;;;;;;;;23.17;49.95;100709.32;2256305;79;51506;-75
2023/06/17 09:56:10;;;;;;;;;;;;;;;23.02;50.55;100706.04;2255504;79;50315;-74
2023/06/17 09:59:10;;;;;;;;;;;;;;;23.11;50.24;100707.45;2264009;77;22454;-74
2023/06/17 10:02:11;;;;;;;;;;;;;;;22.99;50.65;100703.24;2315278;75;51488;-75
2023/06/17 10:05:13;;;;;;;;;;;;;;;23.10;50.41;100704.98;2293258;77;52311;-75
2023/06/17 10:08:14;;;;;;;;;;;;;;;23.12;50.10;100690.23;2315035;75;51509;-76
2023/06/17 10:11:18;;;;;;;;;;;;;;;23.14;50.40;100700.27;2279386;77;51448;-74
2023/06/17 10:14:22;;;;;;;;;;;;;;;22.89;51.25;100700.61;2258884;77;51592;-75
2023/06/17 10:17:24;;;;;;;;;;;;;;;22.95;50.68;100705.19;2236078;78;51744;-76
2023/06/17 10:20:28;;;;;;;;;;;;;;;22.94;50.88;100703.51;2258911;77;50319;-75
2023/06/17 10:23:28;;;;;;;;;;;;;;;23.02;51.10;100700.64;2236390;78;22309;-75
2023/06/17 10:26:31;;;;;;;;;;;;;;;22.89;51.32;100702.81;2258671;77;51456;-75
2023/06/17 10:29:32;;;;;;;;;;;;;;;22.59;52.38;100703.78;2271731;77;51514;-74
2023/06/17 10:32:34;;;;;;;;;;;;;;;22.63;51.96;100692.04;2260584;76;50833;-75
2023/06/17 10:35:37;;;;;;;;;;;;;;;22.58;52.33;100696.70;2231412;79;50734;-75
2023/06/17 10:38:39;;;;;;;;;;;;;;;22.68;51.93;100699.81;2254061;79;51652;-74
2023/06/17 10:41:42;;;;;;;;;;;;;;;22.75;51.48;100697.12;2209722;77;52344;-73
2023/06/17 10:44:44;;;;;;;;;;;;;;;22.70;51.81;100703.13;2257347;77;50724;-74
2023/06/17 10:47:45;;;;;;;;;;;;;;;23.03;51.07;100699.59;2230939;79;51457;-74
2023/06/17 10:50:55;;;;;;;;;;;;;;;23.11;51.01;100696.66;2254078;79;51461;-74
2023/06/17 10:53:57;;;;;;;;;;;;;;;23.15;50.74;100693.03;2230845;78;52544;-73
2023/06/17 10:57:00;;;;;;;;;;;;;;;23.16;50.86;100697.38;2234885;78;50753;-74
2023/06/17 11:00:11;;;;;;;;;;;;;;;23.23;50.28;100695.48;2269714;77;50778;-75
2023/06/17 11:03:17;;;;;;;;;;;;;;;23.26;49.89;100697.23;2263560;77;50318;-75
2023/06/17 11:06:18;;;;;;;;;;;;;;;23.30;49.49;100693.60;2233529;78;51210;-73
2023/06/17 11:09:22;;;;;;;;;;;;;;;23.28;49.57;100688.93;2210263;79;51209;-75
2023/06/17 11:12:23;;;;;;;;;;;;;;;23.23;49.86;100682.81;2256741;77;50451;-72
2023/06/17 11:15:25;;;;;;;;;;;;;;;23.31;49.67;100670.13;2234324;78;50634;-72
2023/06/17 11:18:26;;;;;;;;;;;;;;;23.33;49.58;100666.17;2256960;77;51580;-73
2023/06/17 11:21:28;;;;;;;;;;;;;;;23.40;49.35;100656.17;2238147;77;53916;-73
2023/06/17 11:24:33;;;;;;;;;;;;;;;23.49;49.06;100660.80;2235732;78;51567;-74
2023/06/17 11:27:38;;;;;;;;;;;;;;;23.52;49.03;100669.81;2266500;77;50437;-76
2023/06/17 11:30:40;;;;;;;;;;;;;;;23.54;48.95;100666.91;2267664;77;22380;-76
2023/06/17 11:33:43;;;;;;;;;;;;;;;23.58;49.20;100659.52;2285376;76;52425;-76
2023/06/17 11:36:45;;;;;;;;;;;;;;;23.55;49.41;100655.88;2256386;77;50323;-77
2023/06/17 11:39:47;;;;;;;;;;;;;;;23.57;49.68;100656.48;2255007;79;51589;-75
2023/06/17 11:42:48;;;;;;;;;;;;;;;23.55;50.08;100653.17;2246357;78;50237;-76
2023/06/17 11:45:50;;;;;;;;;;;;;;;23.56;50.39;100656.19;2259511;77;50257;-76
2023/06/17 11:48:52;;;;;;;;;;;;;;;23.55;50.64;100660.45;2257776;77;51586;-76
2023/06/17 11:51:54;;;;;;;;;;;;;;;23.54;51.39;100667.73;2249404;78;50713;-74
2023/06/17 11:54:55;;;;;;;;;;;;;;;23.55;51.96;100686.93;2255519;79;51494;-74
2023/06/17 11:57:57;;;;;;;;;;;;;;;23.56;51.97;100691.31;2202993;78;52208;-76
2023/06/17 12:01:00;;;;;;;;;;;;;;;23.58;53.01;100694.63;2254902;79;50794;-75
2023/06/17 12:04:02;;;;;;;;;;;;;;;23.58;52.79;100689.23;2257401;79;51553;-75
2023/06/17 12:07:07;;;;;;;;;;;;;;;23.61;52.95;100686.58;2257086;79;50315;-77
2023/06/17 12:10:08;;;;;;;;;;;;;;;23.60;53.08;100699.80;2234257;78;51729;-76
2023/06/17 12:13:13;;;;;;;;;;;;;;;23.59;52.98;100701.67;2234616;78;51595;-76
2023/06/17 12:16:25;;;;;;;;;;;;;;;23.60;53.81;100702.50;2258922;78;51380;-76
2023/06/17 12:19:28;;;;;;;;;;;;;;;23.63;52.83;100708.28;2259094;77;51594;-73
2023/06/17 12:22:30;;;;;;;;;;;;;;;23.68;53.19;100706.30;2235814;78;52473;-74
2023/06/17 12:25:34;;;;;;;;;;;;;;;23.69;53.40;100703.92;2236549;77;51453;-77
2023/06/17 12:28:36;;;;;;;;;;;;;;;23.67;53.08;100707.35;2234602;78;50300;-74
2023/06/17 12:31:37;;;;;;;;;;;;;;;23.63;52.87;100712.34;2283539;77;50297;-75
2023/06/17 12:34:39;;;;;;;;;;;;;;;23.66;52.71;100715.98;2293016;77;51972;-74
2023/06/17 12:37:41;;;;;;;;;;;;;;;23.66;52.43;100715.98;2315178;77;50326;-76
2023/06/17 12:40:43;;;;;;;;;;;;;;;23.67;52.25;100713.58;2315475;76;51617;-76
2023/06/17 12:43:44;;;;;;;;;;;;;;;23.67;52.23;100712.23;2292908;77;51484;-74
2023/06/17 12:46:46;;;;;;;;;;;;;;;23.67;52.19;100709.53;2268043;77;52429;-75
2023/06/17 12:49:48;;;;;;;;;;;;;;;23.67;52.02;100697.38;2315384;76;50665;-76
2023/06/17 12:52:51;;;;;;;;;;;;;;;23.68;52.16;100692.26;2293449;77;51531;-76
2023/06/17 12:55:55;;;;;;;;;;;;;;;23.70;51.92;100698.28;2315427;75;50314;-75
2023/06/17 12:58:56;;;;;;;;;;;;;;;23.70;51.96;100691.53;2238545;78;51212;-76
2023/06/17 13:01:58;;;;;;;;;;;;;;;23.69;51.83;100697.98;2233649;78;50616;-76
2023/06/17 13:05:00;;;;;;;;;;;;;;;23.71;51.82;100691.00;2275248;77;50389;-76
2023/06/17 13:08:01;;;;;;;;;;;;;;;23.70;51.84;100683.95;2231100;79;50642;-75
2023/06/17 13:11:03;;;;;;;;;;;;;;;23.70;51.90;100676.67;2231362;79;51778;-76
2023/06/17 13:14:05;;;;;;;;;;;;;;;23.68;51.81;100680.11;2231285;79;50317;-76
2023/06/17 13:17:07;;;;;;;;;;;;;;;23.64;52.08;100676.20;2254127;79;50514;-75
2023/06/17 13:20:09;;;;;;;;;;;;;;;23.65;52.04;100681.89;2254378;79;50354;-76
2023/06/17 13:23:10;;;;;;;;;;;;;;;23.65;51.97;100685.13;2231327;78;51252;-76
2023/06/17 13:26:12;;;;;;;;;;;;;;;23.64;52.40;100672.14;2231056;79;51463;-76
2023/06/17 13:29:14;;;;;;;;;;;;;;;23.64;52.26;100668.09;2254339;79;51371;-76
2023/06/17 13:32:16;;;;;;;;;;;;;;;23.64;52.45;100669.44;2274648;77;51642;-77
2023/06/17 13:35:17;;;;;;;;;;;;;;;23.68;52.27;100665.77;2211442;79;51205;-74
2023/06/17 13:38:19;;;;;;;;;;;;;;;23.72;52.16;100664.84;2258115;77;50253;-74
2023/06/17 13:41:20;;;;;;;;;;;;;;;23.71;52.70;100659.93;2257405;79;50284;-74
2023/06/17 13:44:22;;;;;;;;;;;;;;;23.72;52.72;100654.03;2257437;77;51602;-74
2023/06/17 13:47:24;;;;;;;;;;;;;;;23.77;52.57;100646.95;2224347;78;51597;-74
2023/06/17 13:50:26;;;;;;;;;;;;;;;23.81;53.88;100640.58;2198529;80;50280;-75
2023/06/17 13:53:27;;;;;;;;;;;;;;;23.77;54.49;100646.13;2222213;79;51678;-75
2023/06/17 13:56:29;;;;;;;;;;;;;;;23.74;54.93;100648.75;2198699;80;50370;-74
2023/06/17 13:59:30;;;;;;;;;;;;;;;23.74;55.21;100646.55;2175825;79;51728;-74
2023/06/17 14:02:32;;;;;;;;;;;;;;;23.72;55.36;100649.98;2254037;77;50837;-76
2023/06/17 14:05:34;;;;;;;;;;;;;;;23.73;55.17;100650.30;2256363;79;50368;-73
2023/06/17 14:08:35;;;;;;;;;;;;;;;23.74;55.12;100650.59;2233309;79;49950;-74
2023/06/17 14:11:37;;;;;;;;;;;;;;;23.76;55.14;100653.91;2233335;79;50668;-75
2023/06/17 14:14:39;;;;;;;;;;;;;;;23.74;55.13;100641.99;2234090;78;50320;-75
2023/06/17 14:17:40;;;;;;;;;;;;;;;23.74;55.21;100639.79;2256950;79;50222;-75
2023/06/17 14:20:42;;;;;;;;;;;;;;;23.74;55.19;100643.84;2257030;78;50355;-74
2023/06/17 14:23:45;;;;;;;;;;;;;;;23.74;55.11;100638.44;2210192;79;51664;-75
2023/06/17 14:26:47;;;;;;;;;;;;;;;23.74;55.21;100641.14;2253956;77;50340;-76
2023/06/17 14:29:49;;;;;;;;;;;;;;;23.75;55.24;100644.17;2257119;79;50633;-75
2023/06/17 14:32:50;;;;;;;;;;;;;;;23.76;55.18;100647.16;2253392;77;50255;-75
2023/06/17 14:35:52;;;;;;;;;;;;;;;23.77;55.22;100646.95;2256832;78;51471;-75
2023/06/17 14:38:54;;;;;;;;;;;;;;;23.79;55.18;100639.96;2232997;79;52148;-75
2023/06/17 14:41:55;;;;;;;;;;;;;;;23.80;55.16;100637.59;2233264;78;51477;-75
2023/06/17 14:44:57;;;;;;;;;;;;;;;23.81;55.09;100639.23;2233323;79;49804;-74
2023/06/17 14:47:59;;;;;;;;;;;;;;;23.83;55.14;100647.95;2235708;78;52512;-76
2023/06/17 14:51:00;;;;;;;;;;;;;;;23.88;54.43;100649.48;2236014;77;50624;-75
2023/06/17 14:54:02;;;;;;;;;;;;;;;23.91;53.51;100648.50;2259079;77;50256;-75
2023/06/17 14:57:04;;;;;;;;;;;;;;;23.97;53.37;100656.28;2235765;78;50935;-75
2023/06/17 15:00:07;;;;;;;;;;;;;;;24.00;53.17;100655.02;2235878;78;49565;-75
2023/06/17 15:03:10;;;;;;;;;;;;;;;24.04;53.38;100658.39;2233321;78;51579;-75
2023/06/17 15:06:11;;;;;;;;;;;;;;;24.05;53.45;100651.96;2256932;77;50315;-76
2023/06/17 15:09:26;;;;;;;;;;;;;;;24.05;52.99;100651.96;2257200;77;50367;-74
2023/06/17 15:12:28;;;;;;;;;;;;;;;24.04;52.52;100659.75;2233798;77;51293;-76
2023/06/17 15:15:30;;;;;;;;;;;;;;;24.08;52.59;100653.39;2234037;78;50301;-74
2023/06/17 15:18:31;;;;;;;;;;;;;;;24.06;52.77;100654.13;2233807;78;50737;-75
2023/06/17 15:21:33;;;;;;;;;;;;;;;24.06;52.22;100654.13;2257189;77;51531;-75
2023/06/17 15:24:34;;;;;;;;;;;;;;;24.06;52.74;100657.66;2209009;77;51428;-76
2023/06/17 15:27:36;;;;;;;;;;;;;;;24.05;54.00;100651.96;2234221;78;52123;-76
2023/06/17 15:30:38;;;;;;;;;;;;;;;24.01;53.77;100654.78;2233360;77;51455;-74
2023/06/17 15:33:39;;;;;;;;;;;;;;;24.01;53.76;100649.38;2253105;77;51476;-75